Show Low, AZ (85902)

18:34 MST le 21 octobre 2014 (GMT -0700)
Town Tank | Change Station
CLOSE
Current Station
Stations météorologiques personnelles
Location: Linden, AZ
Altitude: 6415 ft
Stations météo à proximité

Alt. 6415 ft 34.26 °N, 110.16 °W | Updated 3 minutes ago

Partiellement nuageux
Partiellement nuageux
51.4 ° F
Paraît 51.4 ° F
N
0.0
Vent Variable Vent de Sud
Gusts 0.0 mph

Aujourd'hui
Haut(e) -- | Bas -- ° F
--% Risque de précip.
Hier
Haut(e) -- | Bas -- ° F
Precip. -- pouce
6:30 AM 5:38 PM
Lune descendante, 3% visible
Pression 30.12 pouce
Visibilité 10.0 Miles terrestres
Nuages Ciel dégagé
Point de rosée 46 ° F
Humidité 81%
Précipitations 0.00 pouce
Profondeur de la couche neigeuse Non disponible.
UV 0 sur 12
Pollen 4.30 sur 12
Qualité de l'air Non disponible.
Flu Activity No Activity
METAR KSOW 220115Z AUTO 20005KT 10SM CLR 13/05 A3012 RMK AO2

More Conditions Fewer Conditions

Pression 30.12 pouce
Visibilité 10.0 Miles terrestres
Nuages Ciel dégagé
Point de rosée 46 ° F
Humidité 81%
Précipitations 0.00 pouce
Profondeur de la couche neigeuse Non disponible.
UV 0 sur 12
Pollen 4.30 sur 12
Qualité de l'air Non disponible.
Flu Activity No Activity
METAR KSOW 220115Z AUTO 20005KT 10SM CLR 13/05 A3012 RMK AO2

More Conditions Fewer Conditions

10-Day Weather Forecast

Almanac

Astronomie

Oct. 21, 2014 Lever Coucher
Temps réel 06:30 MST 17:38 MST
Crépuscule civil 06:05 MST 18:04 MST
Crépuscule nautique 05:36 MST 18:33 MST
Crépuscule astronomique 05:07 MST 19:02 MST
Lune 04:23 MST (10/21) 16:30 MST (10/21)
Durée de lumière visible 11h 58m
Longueur du jour
11h 08m
Tomorrow will be 2m 0s shorter.
Lune descendante, 3% of the Moon is Illuminated
Aujourd'hui
Lune descendante
Oct 23
Nouveau
Oct 30
Premier quartier
Nov 6
Pleine lune
Nov 14
Dernier quartier

Extrêmes aujourd'hui

State Highs State Lows

Community

WunderPhotos

Upload Photos

1,763,844 Photos téléchargées !

Nearby

Épaisseur de neige

Station Depth Altitude
Baldy 1 in 9125 ft
Maverick Fork 0 in 9200 ft
Promontory 0 in 7930 ft
Wildcat 0 in 7850 ft
Workman Creek 1 in 6900 ft

Activité sismique

Ville Distance Mag. Time & Date
No recent earthquake activity has been reported nearby.
Minimum magnitude displayed is 2.5.

Températures des eaux côtières

Lieu Température
Aucun rapport de station

Stations météo à proximité